Time;durP1;ratioP1;P1;durP2;ratioP2;P2;SDS_P1;SDS_P2;PMS_P1;PMS_P2;Temp;Humidity;BMP_temperature;BMP_pressure;BME280_temperature;BME280_humidity;BME280_pressure;Samples;Min_cycle;Max_cycle;Signal;HPM_P1;HPM_P2
2022/11/14 00:00:52;;;;;;;27.63;19.30;;;;;;;;;;5023834;28;20056;-67
2022/11/14 00:03:19;;;;;;;26.13;18.25;;;;;;;;;;5019285;28;20054;-69
2022/11/14 00:05:46;;;;;;;29.30;18.65;;;;;;;;;;5012437;28;20049;-71
2022/11/14 00:08:16;;;;;;;28.83;19.70;;;;;;;;;;5012219;28;20424;-70
2022/11/14 00:10:47;;;;;;;27.50;19.83;;;;;;;;;;5012443;28;20523;-70
2022/11/14 00:13:14;;;;;;;22.90;18.33;;;;;;;;;;5012262;28;20070;-70
2022/11/14 00:15:41;;;;;;;22.73;18.10;;;;;;;;;;4995064;28;20061;-69
2022/11/14 00:18:07;;;;;;;26.70;18.85;;;;;;;;;;5011954;28;20100;-70
2022/11/14 00:20:34;;;;;;;25.63;18.15;;;;;;;;;;5012175;28;20097;-70
2022/11/14 00:23:01;;;;;;;24.83;17.27;;;;;;;;;;4995151;28;20324;-70
2022/11/14 00:25:27;;;;;;;22.75;17.70;;;;;;;;;;5012204;28;20049;-69
2022/11/14 00:27:59;;;;;;;25.13;17.27;;;;;;;;;;5011691;28;20046;-70
2022/11/14 00:30:26;;;;;;;25.55;18.33;;;;;;;;;;5011703;28;20045;-69
2022/11/14 00:32:53;;;;;;;24.85;17.80;;;;;;;;;;5012278;28;20053;-70
2022/11/14 00:35:19;;;;;;;25.35;17.77;;;;;;;;;;5012135;28;20053;-69
2022/11/14 00:37:46;;;;;;;24.48;17.70;;;;;;;;;;5012057;28;20046;-69
2022/11/14 00:40:13;;;;;;;24.55;16.92;;;;;;;;;;5012090;28;20112;-70
2022/11/14 00:42:40;;;;;;;22.40;17.27;;;;;;;;;;5015617;28;20054;-70
2022/11/14 00:45:07;;;;;;;24.23;17.40;;;;;;;;;;5015736;28;20128;-70
2022/11/14 00:47:34;;;;;;;26.35;17.27;;;;;;;;;;4999100;28;20042;-70
2022/11/14 00:50:00;;;;;;;23.20;16.55;;;;;;;;;;5016102;28;20441;-70
2022/11/14 00:52:27;;;;;;;25.20;17.75;;;;;;;;;;5018048;28;20054;-70
2022/11/14 00:54:54;;;;;;;29.15;17.85;;;;;;;;;;5017532;28;20050;-70
2022/11/14 00:57:20;;;;;;;24.10;16.48;;;;;;;;;;5015942;28;20046;-69
2022/11/14 00:59:47;;;;;;;21.45;15.93;;;;;;;;;;5015102;28;20046;-70
2022/11/14 01:02:13;;;;;;;23.13;16.70;;;;;;;;;;5016010;28;20050;-70
2022/11/14 01:04:40;;;;;;;23.42;16.20;;;;;;;;;;5015735;28;20050;-70
2022/11/14 01:07:07;;;;;;;21.42;15.50;;;;;;;;;;5016044;28;20049;-69
2022/11/14 01:09:33;;;;;;;21.70;15.93;;;;;;;;;;5014792;28;20054;-70
2022/11/14 01:12:00;;;;;;;24.88;16.50;;;;;;;;;;5015681;28;20141;-70
2022/11/14 01:14:26;;;;;;;22.58;16.33;;;;;;;;;;5015290;28;20104;-70
2022/11/14 01:16:53;;;;;;;24.65;15.82;;;;;;;;;;5015636;28;20056;-70
2022/11/14 01:19:20;;;;;;;23.67;16.23;;;;;;;;;;5015697;28;20176;-70
2022/11/14 01:21:46;;;;;;;21.02;14.70;;;;;;;;;;5015068;28;20500;-68
2022/11/14 01:24:13;;;;;;;23.95;16.30;;;;;;;;;;5015300;28;20046;-70
2022/11/14 01:26:39;;;;;;;24.50;17.42;;;;;;;;;;5014996;28;20042;-70
2022/11/14 01:29:06;;;;;;;23.85;15.77;;;;;;;;;;5014887;28;20401;-70
2022/11/14 01:31:33;;;;;;;25.02;16.73;;;;;;;;;;5015259;28;20053;-69
2022/11/14 01:33:59;;;;;;;23.83;17.23;;;;;;;;;;5015337;28;20405;-70
2022/11/14 01:36:26;;;;;;;26.27;18.08;;;;;;;;;;5015659;28;20416;-71
2022/11/14 01:38:53;;;;;;;24.23;17.38;;;;;;;;;;5014475;28;20464;-71
2022/11/14 01:41:20;;;;;;;24.60;17.60;;;;;;;;;;5014753;28;20053;-70
2022/11/14 01:43:47;;;;;;;29.10;19.42;;;;;;;;;;5015042;28;20050;-70
2022/11/14 01:46:29;;;;;;;24.77;17.58;;;;;;;;;;5014965;28;20069;-69
2022/11/14 01:48:59;;;;;;;27.67;18.50;;;;;;;;;;4963778;28;20058;-70
2022/11/14 01:51:31;;;;;;;24.58;17.73;;;;;;;;;;4978856;28;20285;-69
2022/11/14 01:54:00;;;;;;;27.10;18.30;;;;;;;;;;4977557;28;20429;-69
2022/11/14 01:56:37;;;;;;;24.92;17.33;;;;;;;;;;4995584;28;20328;-70
2022/11/14 01:59:07;;;;;;;25.70;18.17;;;;;;;;;;4961621;28;20046;-70
2022/11/14 02:01:35;;;;;;;24.50;18.02;;;;;;;;;;4978159;28;20420;-69
2022/11/14 02:04:04;;;;;;;24.20;17.17;;;;;;;;;;4995345;28;20058;-70
2022/11/14 02:06:32;;;;;;;25.80;18.58;;;;;;;;;;4995677;28;20097;-70
2022/11/14 02:09:01;;;;;;;26.63;18.95;;;;;;;;;;4994228;28;20050;-70
2022/11/14 02:11:30;;;;;;;26.40;17.98;;;;;;;;;;5000188;28;20042;-69
2022/11/14 02:13:58;;;;;;;24.52;18.17;;;;;;;;;;4981226;28;20077;-70
2022/11/14 02:16:26;;;;;;;27.58;19.95;;;;;;;;;;5014859;28;20065;-70
2022/11/14 02:18:52;;;;;;;24.40;18.05;;;;;;;;;;4996544;28;20061;-69
2022/11/14 02:21:19;;;;;;;26.42;16.98;;;;;;;;;;5014378;28;20567;-70
2022/11/14 02:23:46;;;;;;;27.45;18.52;;;;;;;;;;5014222;28;20563;-71
2022/11/14 02:26:16;;;;;;;28.17;19.65;;;;;;;;;;4996585;28;20112;-70
2022/11/14 02:28:42;;;;;;;28.85;19.33;;;;;;;;;;5013148;28;20516;-70
2022/11/14 02:31:09;;;;;;;28.95;20.23;;;;;;;;;;5014093;28;20050;-70
2022/11/14 02:33:35;;;;;;;27.35;19.13;;;;;;;;;;5014135;28;20054;-69
2022/11/14 02:36:02;;;;;;;29.73;19.15;;;;;;;;;;5014439;28;20053;-70
2022/11/14 02:38:29;;;;;;;29.88;20.13;;;;;;;;;;5013593;28;20077;-69
2022/11/14 02:40:58;;;;;;;29.00;20.70;;;;;;;;;;5014000;28;20054;-70
2022/11/14 02:43:24;;;;;;;31.50;19.15;;;;;;;;;;4996747;28;20096;-69
2022/11/14 02:45:51;;;;;;;29.85;20.42;;;;;;;;;;4994208;28;20093;-70
2022/11/14 02:48:17;;;;;;;30.05;19.90;;;;;;;;;;4993497;28;20560;-70
2022/11/14 02:50:47;;;;;;;27.40;19.50;;;;;;;;;;4994356;28;20057;-70
2022/11/14 02:53:14;;;;;;;27.90;19.98;;;;;;;;;;4994345;28;20100;-69
2022/11/14 02:55:40;;;;;;;30.30;20.17;;;;;;;;;;4993866;28;20560;-70
2022/11/14 02:58:07;;;;;;;26.08;19.70;;;;;;;;;;4993473;28;20084;-70
2022/11/14 03:00:33;;;;;;;27.73;19.77;;;;;;;;;;4993731;28;20054;-70
2022/11/14 03:03:09;;;;;;;29.27;20.05;;;;;;;;;;4994225;28;20472;-70
2022/11/14 03:05:36;;;;;;;26.77;18.63;;;;;;;;;;4993504;28;20049;-70
2022/11/14 03:08:02;;;;;;;26.90;19.63;;;;;;;;;;5012952;28;20140;-69
2022/11/14 03:10:29;;;;;;;33.25;19.90;;;;;;;;;;5013304;28;20555;-69
2022/11/14 03:12:56;;;;;;;27.23;19.40;;;;;;;;;;5013177;28;20104;-69
2022/11/14 03:15:23;;;;;;;26.85;18.60;;;;;;;;;;5013357;28;20453;-69
2022/11/14 03:17:50;;;;;;;28.50;19.90;;;;;;;;;;5012607;28;20037;-69
2022/11/14 03:20:17;;;;;;;27.50;18.60;;;;;;;;;;5013523;28;20487;-70
2022/11/14 03:22:43;;;;;;;29.25;19.30;;;;;;;;;;4979888;28;20049;-69
2022/11/14 03:25:10;;;;;;;28.65;19.02;;;;;;;;;;5013344;28;20118;-69
2022/11/14 03:27:36;;;;;;;27.38;17.92;;;;;;;;;;5013210;28;20073;-70
2022/11/14 03:30:04;;;;;;;24.25;17.65;;;;;;;;;;5012678;28;20050;-69
2022/11/14 03:32:31;;;;;;;26.60;17.73;;;;;;;;;;4995825;28;20112;-70
2022/11/14 03:34:57;;;;;;;26.60;18.70;;;;;;;;;;5013112;28;20099;-68
2022/11/14 03:37:24;;;;;;;26.13;18.10;;;;;;;;;;5013066;28;20126;-69
2022/11/14 03:39:51;;;;;;;25.85;18.02;;;;;;;;;;5012086;28;20082;-70
2022/11/14 03:42:17;;;;;;;27.13;18.50;;;;;;;;;;5012983;28;20057;-70
2022/11/14 03:44:44;;;;;;;24.80;16.75;;;;;;;;;;5012876;28;20413;-69
2022/11/14 03:47:10;;;;;;;26.33;17.67;;;;;;;;;;5017252;28;20052;-69
2022/11/14 03:49:37;;;;;;;28.60;18.17;;;;;;;;;;5019949;28;20057;-70
2022/11/14 03:52:04;;;;;;;23.90;17.10;;;;;;;;;;5012730;28;20485;-69
2022/11/14 03:54:30;;;;;;;23.88;17.17;;;;;;;;;;5012483;28;20045;-69
2022/11/14 03:56:57;;;;;;;24.60;17.48;;;;;;;;;;5013002;28;20104;-70
2022/11/14 03:59:23;;;;;;;30.05;19.75;;;;;;;;;;5011901;28;20050;-70
2022/11/14 04:01:50;;;;;;;31.20;20.38;;;;;;;;;;5012467;28;20096;-69
2022/11/14 04:04:17;;;;;;;30.75;20.40;;;;;;;;;;5012508;28;20390;-70
2022/11/14 04:06:44;;;;;;;29.02;18.80;;;;;;;;;;5012462;28;20050;-70
2022/11/14 04:09:11;;;;;;;27.77;18.60;;;;;;;;;;5011784;28;20049;-69
2022/11/14 04:11:38;;;;;;;24.70;17.48;;;;;;;;;;5012436;28;20085;-70
2022/11/14 04:14:04;;;;;;;27.30;18.63;;;;;;;;;;4995135;28;20054;-68
2022/11/14 04:16:31;;;;;;;27.45;18.23;;;;;;;;;;5012022;28;20096;-69
2022/11/14 04:18:57;;;;;;;28.33;18.08;;;;;;;;;;5011776;28;20132;-70
2022/11/14 04:21:24;;;;;;;28.40;18.02;;;;;;;;;;5012542;28;20050;-70
2022/11/14 04:23:51;;;;;;;29.17;19.55;;;;;;;;;;5012060;28;20517;-70
2022/11/14 04:26:17;;;;;;;27.63;19.23;;;;;;;;;;5012413;28;20054;-70
2022/11/14 04:28:44;;;;;;;30.45;19.33;;;;;;;;;;5011415;28;20077;-70
2022/11/14 04:31:10;;;;;;;26.20;18.35;;;;;;;;;;5068988;23;20507;-68
2022/11/14 04:33:37;;;;;;;27.60;18.58;;;;;;;;;;5052469;28;20095;-67
2022/11/14 04:36:04;;;;;;;29.38;19.58;;;;;;;;;;5034785;28;20068;-67
2022/11/14 04:38:30;;;;;;;29.65;18.23;;;;;;;;;;5034178;28;20305;-66
2022/11/14 04:40:58;;;;;;;26.15;17.92;;;;;;;;;;5034552;28;20053;-67
2022/11/14 04:43:24;;;;;;;26.15;17.58;;;;;;;;;;5052129;28;20053;-67
2022/11/14 04:45:51;;;;;;;26.13;17.38;;;;;;;;;;5052067;28;20056;-66
2022/11/14 04:48:18;;;;;;;26.98;18.13;;;;;;;;;;5050602;28;20095;-67
2022/11/14 04:50:45;;;;;;;27.33;18.13;;;;;;;;;;5033218;28;20057;-67
2022/11/14 04:53:12;;;;;;;27.58;18.65;;;;;;;;;;5017462;28;20130;-67
2022/11/14 04:55:38;;;;;;;27.92;18.83;;;;;;;;;;5050912;28;20499;-67
2022/11/14 04:58:05;;;;;;;30.95;20.15;;;;;;;;;;5050758;28;20119;-67
2022/11/14 05:00:32;;;;;;;28.13;17.83;;;;;;;;;;5016941;28;20053;-67
2022/11/14 05:02:59;;;;;;;30.08;19.23;;;;;;;;;;5017226;28;20053;-67
2022/11/14 05:05:25;;;;;;;30.83;19.33;;;;;;;;;;5050661;28;20049;-68
2022/11/14 05:07:53;;;;;;;26.95;17.90;;;;;;;;;;5032599;28;20080;-67
2022/11/14 05:10:19;;;;;;;28.73;17.92;;;;;;;;;;5032933;28;20136;-66
2022/11/14 05:12:46;;;;;;;26.30;18.17;;;;;;;;;;5051091;28;20052;-68
2022/11/14 05:15:13;;;;;;;25.92;16.95;;;;;;;;;;5050563;28;20549;-67
2022/11/14 05:17:40;;;;;;;25.63;16.35;;;;;;;;;;5016902;28;20045;-66
2022/11/14 05:20:07;;;;;;;26.80;16.77;;;;;;;;;;5050505;28;20052;-67
2022/11/14 05:22:34;;;;;;;23.83;16.45;;;;;;;;;;5051605;28;20079;-67
2022/11/14 05:25:00;;;;;;;24.45;17.33;;;;;;;;;;5033580;28;20472;-67
2022/11/14 05:27:28;;;;;;;25.10;16.35;;;;;;;;;;5050891;28;20087;-67
2022/11/14 05:29:54;;;;;;;22.02;15.65;;;;;;;;;;5035965;28;20049;-65
2022/11/14 05:32:21;;;;;;;25.15;15.35;;;;;;;;;;5036471;28;20053;-66
2022/11/14 05:34:48;;;;;;;21.63;14.88;;;;;;;;;;5054413;28;20057;-67
2022/11/14 05:37:14;;;;;;;26.60;17.08;;;;;;;;;;5054406;28;20049;-66
2022/11/14 05:39:41;;;;;;;23.85;16.08;;;;;;;;;;5035709;28;20110;-67
2022/11/14 05:42:07;;;;;;;21.42;15.38;;;;;;;;;;5054190;28;20103;-67
2022/11/14 05:44:34;;;;;;;22.30;15.75;;;;;;;;;;5054795;28;20060;-67
2022/11/14 05:47:01;;;;;;;21.55;13.93;;;;;;;;;;5053921;28;20161;-66
2022/11/14 05:49:27;;;;;;;21.45;15.02;;;;;;;;;;5019141;28;20102;-67
2022/11/14 05:51:54;;;;;;;23.13;15.32;;;;;;;;;;5053924;28;20499;-67
2022/11/14 05:54:20;;;;;;;21.38;15.18;;;;;;;;;;5053394;28;20110;-66
2022/11/14 05:56:47;;;;;;;21.40;15.13;;;;;;;;;;5053502;28;20053;-67
2022/11/14 05:59:14;;;;;;;20.67;15.27;;;;;;;;;;5035736;28;20041;-67
2022/11/14 06:01:40;;;;;;;20.25;14.82;;;;;;;;;;5019938;28;20148;-68
2022/11/14 06:04:07;;;;;;;22.65;15.38;;;;;;;;;;5036184;28;20049;-67
2022/11/14 06:06:34;;;;;;;21.98;15.43;;;;;;;;;;5054013;28;20081;-67
2022/11/14 06:09:00;;;;;;;19.95;14.85;;;;;;;;;;5002965;28;20562;-68
2022/11/14 06:11:27;;;;;;;23.98;15.50;;;;;;;;;;5053577;28;20099;-67
2022/11/14 06:13:54;;;;;;;19.15;14.07;;;;;;;;;;5053705;28;20045;-67
2022/11/14 06:16:20;;;;;;;22.27;15.10;;;;;;;;;;5019801;28;20131;-67
2022/11/14 06:18:47;;;;;;;24.33;17.90;;;;;;;;;;5053060;28;20056;-66
2022/11/14 06:21:19;;;;;;;25.55;17.25;;;;;;;;;;5053130;28;20083;-67
2022/11/14 06:23:46;;;;;;;26.35;17.38;;;;;;;;;;5036178;28;20076;-66
2022/11/14 06:26:25;;;;;;;22.23;14.90;;;;;;;;;;5053692;28;20128;-68
2022/11/14 06:28:52;;;;;;;24.00;16.45;;;;;;;;;;5051783;28;20135;-67
2022/11/14 06:31:19;;;;;;;23.27;16.70;;;;;;;;;;5035624;28;20049;-67
2022/11/14 06:33:46;;;;;;;22.35;16.58;;;;;;;;;;5019322;28;20052;-67
2022/11/14 06:36:13;;;;;;;21.40;15.23;;;;;;;;;;5019356;28;20077;-66
2022/11/14 06:38:40;;;;;;;22.63;15.93;;;;;;;;;;5018425;28;20576;-67
2022/11/14 06:41:12;;;;;;;23.27;15.60;;;;;;;;;;5035689;28;20057;-67
2022/11/14 06:43:40;;;;;;;23.55;16.17;;;;;;;;;;5035965;28;20048;-67
2022/11/14 06:46:09;;;;;;;21.38;14.95;;;;;;;;;;5019461;28;20057;-68
2022/11/14 06:48:36;;;;;;;22.15;15.95;;;;;;;;;;5018763;28;20507;-66
2022/11/14 06:51:04;;;;;;;17.88;13.43;;;;;;;;;;5019745;28;20072;-67
2022/11/14 06:53:32;;;;;;;21.60;14.25;;;;;;;;;;5019178;28;20045;-67
2022/11/14 06:56:06;;;;;;;19.15;13.60;;;;;;;;;;5035280;28;20415;-68
2022/11/14 06:58:34;;;;;;;20.25;13.43;;;;;;;;;;5052521;28;20120;-67
2022/11/14 07:01:05;;;;;;;18.33;12.80;;;;;;;;;;5019057;28;20056;-67
2022/11/14 07:03:32;;;;;;;17.92;11.77;;;;;;;;;;5053470;28;20081;-67
2022/11/14 07:06:00;;;;;;;16.63;11.55;;;;;;;;;;5018737;28;20571;-68
2022/11/14 07:08:26;;;;;;;15.90;11.63;;;;;;;;;;5018526;28;20045;-66
2022/11/14 07:10:53;;;;;;;15.57;11.80;;;;;;;;;;5019062;28;20081;-67
2022/11/14 07:13:20;;;;;;;15.70;11.00;;;;;;;;;;5053295;28;20049;-68
2022/11/14 07:15:53;;;;;;;18.83;12.85;;;;;;;;;;5035329;28;20049;-67
2022/11/14 07:18:20;;;;;;;16.92;13.07;;;;;;;;;;5018477;28;20484;-67
2022/11/14 07:20:47;;;;;;;18.10;12.38;;;;;;;;;;5034509;28;20961;-66
2022/11/14 07:23:14;;;;;;;17.38;11.63;;;;;;;;;;5035177;28;20076;-68
2022/11/14 07:25:48;;;;;;;17.60;12.52;;;;;;;;;;5036125;28;20512;-68
2022/11/14 07:28:15;;;;;;;18.80;13.40;;;;;;;;;;5052698;28;20045;-68
2022/11/14 07:30:42;;;;;;;19.77;13.65;;;;;;;;;;5018497;28;20114;-68
2022/11/14 07:33:10;;;;;;;20.13;13.65;;;;;;;;;;5019088;28;20048;-68
2022/11/14 07:35:40;;;;;;;17.77;13.98;;;;;;;;;;5035817;28;20076;-68
2022/11/14 07:38:06;;;;;;;19.52;13.23;;;;;;;;;;5034236;28;20059;-67
2022/11/14 07:40:33;;;;;;;17.73;12.93;;;;;;;;;;5052249;28;20049;-66
2022/11/14 07:43:00;;;;;;;18.98;14.02;;;;;;;;;;5034787;28;20060;-68
2022/11/14 07:45:27;;;;;;;20.13;13.60;;;;;;;;;;5002390;28;20053;-67
2022/11/14 07:47:59;;;;;;;16.17;12.45;;;;;;;;;;5034095;28;20503;-67
2022/11/14 07:50:27;;;;;;;19.30;13.73;;;;;;;;;;5034122;28;20080;-66
2022/11/14 07:52:55;;;;;;;20.77;14.73;;;;;;;;;;5034940;28;20118;-66
2022/11/14 07:55:21;;;;;;;17.25;12.85;;;;;;;;;;5018457;28;20049;-66
2022/11/14 07:57:52;;;;;;;20.38;13.77;;;;;;;;;;5001628;28;20587;-65
2022/11/14 08:00:18;;;;;;;19.83;13.88;;;;;;;;;;5034719;28;20057;-67
2022/11/14 08:02:46;;;;;;;21.30;13.20;;;;;;;;;;5034707;28;20088;-67
2022/11/14 08:05:12;;;;;;;18.10;12.60;;;;;;;;;;5034483;28;20053;-66
2022/11/14 08:07:39;;;;;;;19.35;13.50;;;;;;;;;;5034189;28;20068;-65
2022/11/14 08:10:06;;;;;;;19.75;13.55;;;;;;;;;;5034296;28;20508;-66
2022/11/14 08:12:33;;;;;;;18.60;13.57;;;;;;;;;;5053511;28;20476;-68
2022/11/14 08:14:59;;;;;;;19.40;13.23;;;;;;;;;;5051863;28;20076;-65
2022/11/14 08:17:26;;;;;;;17.25;12.95;;;;;;;;;;5051927;28;20053;-66
2022/11/14 08:19:53;;;;;;;19.92;13.43;;;;;;;;;;5051276;28;20048;-67
2022/11/14 08:22:19;;;;;;;19.10;12.68;;;;;;;;;;5051463;28;20049;-67
2022/11/14 08:24:46;;;;;;;16.10;11.93;;;;;;;;;;5051736;28;20106;-67
2022/11/14 08:27:13;;;;;;;17.25;12.80;;;;;;;;;;5034140;28;20049;-68
2022/11/14 08:29:39;;;;;;;17.13;12.45;;;;;;;;;;5033025;28;20478;-67
2022/11/14 08:32:06;;;;;;;19.08;12.90;;;;;;;;;;5051692;28;20046;-66
2022/11/14 08:34:33;;;;;;;19.80;13.80;;;;;;;;;;5034135;28;20045;-66
2022/11/14 08:37:00;;;;;;;19.77;12.30;;;;;;;;;;5051863;28;20102;-67
2022/11/14 08:39:27;;;;;;;17.88;13.23;;;;;;;;;;5051784;28;20045;-68
2022/11/14 08:41:54;;;;;;;25.38;16.98;;;;;;;;;;5051692;28;20465;-67
2022/11/14 08:44:21;;;;;;;17.38;11.70;;;;;;;;;;5051651;28;20049;-67
2022/11/14 08:46:49;;;;;;;16.90;11.60;;;;;;;;;;5052088;28;20098;-68
2022/11/14 08:49:15;;;;;;;20.92;12.85;;;;;;;;;;5016933;28;20090;-68
2022/11/14 08:51:42;;;;;;;20.40;12.27;;;;;;;;;;5002446;28;20470;-68
2022/11/14 08:54:09;;;;;;;19.70;12.25;;;;;;;;;;5052561;28;20088;-67
2022/11/14 08:56:35;;;;;;;18.65;12.10;;;;;;;;;;5051477;28;20053;-68
2022/11/14 08:59:05;;;;;;;23.33;13.75;;;;;;;;;;5050869;28;20077;-68
2022/11/14 09:01:31;;;;;;;29.17;16.52;;;;;;;;;;5051945;28;20049;-69
2022/11/14 09:03:59;;;;;;;19.65;12.98;;;;;;;;;;5037813;28;20122;-68
2022/11/14 09:06:25;;;;;;;20.63;12.63;;;;;;;;;;5055270;28;20122;-67
2022/11/14 09:08:52;;;;;;;18.17;11.32;;;;;;;;;;5020579;28;20088;-68
2022/11/14 09:11:19;;;;;;;22.15;12.95;;;;;;;;;;5021094;28;20053;-68
2022/11/14 09:13:45;;;;;;;19.48;11.50;;;;;;;;;;5037726;28;20049;-67
2022/11/14 09:16:12;;;;;;;19.13;9.68;;;;;;;;;;5054923;28;20049;-68
2022/11/14 09:18:39;;;;;;;10.95;8.40;;;;;;;;;;5036728;28;20119;-66
2022/11/14 09:21:07;;;;;;;9.98;7.78;;;;;;;;;;5054714;28;20053;-68
2022/11/14 09:23:34;;;;;;;12.65;8.95;;;;;;;;;;5037124;28;20091;-67
2022/11/14 09:26:05;;;;;;;13.57;8.10;;;;;;;;;;5036967;28;20049;-67
2022/11/14 09:28:32;;;;;;;8.50;5.93;;;;;;;;;;5036115;28;20090;-66
2022/11/14 09:31:03;;;;;;;13.73;7.75;;;;;;;;;;5004084;28;20049;-66
2022/11/14 09:33:29;;;;;;;12.20;8.50;;;;;;;;;;5036947;28;20048;-66
2022/11/14 09:35:58;;;;;;;9.40;7.10;;;;;;;;;;5054674;28;20053;-66
2022/11/14 09:38:25;;;;;;;9.50;5.55;;;;;;;;;;5054565;28;20061;-66
2022/11/14 09:41:22;;;;;;;8.50;4.90;;;;;;;;;;5020982;28;20049;-65
2022/11/14 09:44:07;;;;;;;5.38;4.03;;;;;;;;;;5038502;28;20053;-68
2022/11/14 09:46:43;;;;;;;5.93;4.00;;;;;;;;;;5036303;28;20049;-65
2022/11/14 09:49:28;;;;;;;6.60;4.10;;;;;;;;;;5053889;28;20037;-66
2022/11/14 09:52:23;;;;;;;4.18;3.38;;;;;;;;;;5021019;28;20088;-67
2022/11/14 09:55:10;;;;;;;5.20;3.10;;;;;;;;;;5015483;28;20078;-67
2022/11/14 09:57:37;;;;;;;4.00;3.00;;;;;;;;;;5036535;28;20099;-66
2022/11/14 10:00:21;;;;;;;5.07;3.30;;;;;;;;;;5019238;28;20045;-67
2022/11/14 10:03:15;;;;;;;2.88;2.58;;;;;;;;;;5020038;28;20049;-66
2022/11/14 10:06:07;;;;;;;3.60;2.13;;;;;;;;;;5053880;28;20106;-66
2022/11/14 10:09:00;;;;;;;3.05;2.10;;;;;;;;;;5053228;28;20499;-67
2022/11/14 10:11:42;;;;;;;4.53;2.10;;;;;;;;;;5026772;28;20096;-67
2022/11/14 10:14:25;;;;;;;3.15;2.30;;;;;;;;;;5035252;28;20534;-66
2022/11/14 10:17:04;;;;;;;2.35;2.15;;;;;;;;;;5053777;28;20065;-66
2022/11/14 10:19:57;;;;;;;3.67;2.00;;;;;;;;;;5036070;28;20053;-66
2022/11/14 10:22:33;;;;;;;2.05;1.85;;;;;;;;;;5034373;28;20107;-66
2022/11/14 10:25:16;;;;;;;3.88;2.50;;;;;;;;;;5053756;28;20107;-66
2022/11/14 10:28:14;;;;;;;2.50;2.00;;;;;;;;;;5035827;28;20106;-66
2022/11/14 10:30:59;;;;;;;3.42;2.10;;;;;;;;;;5051999;23;20364;-69
2022/11/14 10:34:01;;;;;;;2.33;1.75;;;;;;;;;;5016192;28;20053;-69
2022/11/14 10:36:57;;;;;;;2.22;2.03;;;;;;;;;;5032404;28;20107;-69
2022/11/14 10:39:29;;;;;;;4.03;1.80;;;;;;;;;;5028399;28;20049;-69
2022/11/14 10:41:58;;;;;;;1.77;1.67;;;;;;;;;;5012717;28;20084;-68
2022/11/14 10:44:38;;;;;;;2.65;1.50;;;;;;;;;;4999892;28;20109;-69
2022/11/14 10:47:07;;;;;;;1.65;1.55;;;;;;;;;;5015723;28;20053;-68
2022/11/14 10:49:37;;;;;;;1.95;1.70;;;;;;;;;;5015812;28;20104;-69
2022/11/14 10:52:08;;;;;;;2.30;1.50;;;;;;;;;;5015839;28;20133;-69
2022/11/14 10:54:45;;;;;;;2.13;1.42;;;;;;;;;;5008696;28;20069;-70
2022/11/14 10:57:17;;;;;;;2.35;1.52;;;;;;;;;;4992751;28;20054;-68
2022/11/14 10:59:43;;;;;;;1.70;1.60;;;;;;;;;;4993072;28;20073;-69
2022/11/14 11:02:10;;;;;;;2.28;1.60;;;;;;;;;;4994027;28;20105;-69
2022/11/14 11:04:39;;;;;;;1.92;1.52;;;;;;;;;;4992597;28;20061;-69
2022/11/14 11:07:05;;;;;;;2.40;1.42;;;;;;;;;;4977129;28;20211;-69
2022/11/14 11:12:23;;;;;;;3.67;1.52;;;;;;;;;;5013179;28;20053;-69
2022/11/14 11:15:30;;;;;;;4.63;1.45;;;;;;;;;;5012137;28;20060;-68
2022/11/14 11:17:59;;;;;;;2.15;1.70;;;;;;;;;;5012017;28;20054;-69
2022/11/14 11:20:28;;;;;;;2.85;2.20;;;;;;;;;;5012684;28;20042;-70
2022/11/14 11:23:02;;;;;;;2.35;1.40;;;;;;;;;;5013246;28;20088;-69
2022/11/14 11:25:30;;;;;;;1.88;1.20;;;;;;;;;;5012913;28;20058;-69
2022/11/14 11:28:07;;;;;;;1.73;1.25;;;;;;;;;;5012473;28;20084;-70
2022/11/14 11:30:33;;;;;;;1.50;1.40;;;;;;;;;;5012582;28;20062;-70
2022/11/14 11:33:19;;;;;;;1.20;1.02;;;;;;;;;;5012725;28;20053;-68
2022/11/14 11:35:48;;;;;;;2.08;1.48;;;;;;;;;;5011869;28;20050;-70
2022/11/14 11:38:15;;;;;;;4.80;1.30;;;;;;;;;;5011171;28;20128;-69
2022/11/14 11:40:43;;;;;;;2.03;1.20;;;;;;;;;;5011532;28;20085;-68
2022/11/14 11:43:13;;;;;;;1.80;1.15;;;;;;;;;;5008058;28;20105;-69
2022/11/14 11:46:01;;;;;;;1.13;1.02;;;;;;;;;;4992442;28;20050;-70
2022/11/14 11:48:37;;;;;;;1.50;1.40;;;;;;;;;;4975513;28;20185;-69
2022/11/14 11:51:06;;;;;;;2.13;1.40;;;;;;;;;;4993232;28;20046;-70
2022/11/14 11:53:38;;;;;;;1.52;1.20;;;;;;;;;;4991738;28;20450;-70
2022/11/14 11:56:15;;;;;;;3.67;1.27;;;;;;;;;;4989425;28;20058;-71
2022/11/14 11:58:48;;;;;;;2.50;1.17;;;;;;;;;;5007353;28;20089;-69
2022/11/14 12:01:15;;;;;;;1.42;1.00;;;;;;;;;;4992801;28;20137;-69
2022/11/14 12:03:47;;;;;;;1.40;1.30;;;;;;;;;;4992878;28;20074;-70
2022/11/14 12:06:24;;;;;;;1.67;1.30;;;;;;;;;;4991593;28;20064;-68
2022/11/14 12:08:58;;;;;;;1.25;1.15;;;;;;;;;;4991070;28;20418;-69
2022/11/14 12:11:26;;;;;;;2.50;1.85;;;;;;;;;;4991878;28;20078;-69
2022/11/14 12:14:02;;;;;;;1.90;1.30;;;;;;;;;;4975469;28;20425;-70
2022/11/14 12:16:53;;;;;;;2.10;1.90;;;;;;;;;;4991849;28;20563;-69
2022/11/14 12:19:38;;;;;;;3.28;1.55;;;;;;;;;;5000280;28;20133;-69
2022/11/14 12:22:24;;;;;;;2.85;1.67;;;;;;;;;;5011095;28;20121;-68
2022/11/14 12:24:50;;;;;;;1.48;1.15;;;;;;;;;;5012309;28;20566;-70
2022/11/14 12:27:44;;;;;;;1.33;1.15;;;;;;;;;;5012368;28;20527;-69
2022/11/14 12:30:21;;;;;;;3.55;1.38;;;;;;;;;;5009705;28;20423;-69
2022/11/14 12:32:49;;;;;;;1.40;1.30;;;;;;;;;;5010732;28;20050;-69
2022/11/14 12:35:38;;;;;;;1.55;1.20;;;;;;;;;;5008850;28;20085;-68
2022/11/14 12:38:12;;;;;;;3.28;1.35;;;;;;;;;;5014674;28;20053;-70
2022/11/14 12:40:41;;;;;;;1.73;1.27;;;;;;;;;;5015083;28;20050;-70
2022/11/14 12:43:31;;;;;;;2.25;1.33;;;;;;;;;;5014832;28;20054;-69
2022/11/14 12:46:07;;;;;;;3.42;1.05;;;;;;;;;;5013906;28;20471;-70
2022/11/14 12:48:35;;;;;;;1.20;1.10;;;;;;;;;;5013587;28;20050;-70
2022/11/14 12:51:03;;;;;;;2.08;1.13;;;;;;;;;;5013914;28;20100;-67
2022/11/14 12:53:36;;;;;;;1.52;1.33;;;;;;;;;;5013232;28;20104;-68
2022/11/14 12:56:28;;;;;;;1.77;1.20;;;;;;;;;;5012735;28;20493;-69
2022/11/14 12:59:19;;;;;;;2.00;1.10;;;;;;;;;;5013312;28;20053;-68
2022/11/14 13:01:51;;;;;;;3.60;1.30;;;;;;;;;;5013586;28;20543;-68
2022/11/14 13:04:48;;;;;;;1.90;1.20;;;;;;;;;;5013768;28;20057;-69
2022/11/14 13:07:53;;;;;;;1.95;1.67;;;;;;;;;;5011958;28;20136;-69
2022/11/14 13:10:27;;;;;;;3.30;1.80;;;;;;;;;;5009943;28;20132;-69
2022/11/14 13:22:11;;;;;;;1.90;1.63;;;;;;;;;;5013449;28;20104;-68
2022/11/14 13:25:02;;;;;;;1.95;1.40;;;;;;;;;;5013510;28;20049;-68
2022/11/14 13:27:33;;;;;;;1.65;1.38;;;;;;;;;;5013974;28;20054;-69
2022/11/14 13:30:56;;;;;;;3.03;1.80;;;;;;;;;;5011837;28;20443;-68
2022/11/14 13:33:47;;;;;;;3.05;2.00;;;;;;;;;;5009129;28;20089;-70
2022/11/14 13:36:39;;;;;;;2.67;1.63;;;;;;;;;;5000993;28;20085;-66
2022/11/14 13:39:08;;;;;;;2.47;1.40;;;;;;;;;;5017281;28;20046;-66
2022/11/14 13:41:47;;;;;;;1.30;1.20;;;;;;;;;;5001030;28;20042;-66
2022/11/14 13:44:33;;;;;;;4.15;1.33;;;;;;;;;;5006808;28;20128;-67
2022/11/14 13:47:41;;;;;;;2.08;1.67;;;;;;;;;;4999798;28;20085;-67
2022/11/14 13:50:18;;;;;;;1.90;1.67;;;;;;;;;;4993701;28;20053;-67
2022/11/14 13:52:46;;;;;;;1.60;1.50;;;;;;;;;;5004235;28;20050;-67
2022/11/14 13:55:29;;;;;;;2.15;1.50;;;;;;;;;;5003792;28;20054;-67
2022/11/14 13:58:26;;;;;;;2.10;1.58;;;;;;;;;;4999798;28;20058;-68
2022/11/14 14:01:01;;;;;;;1.73;1.20;;;;;;;;;;5006985;28;20125;-68
2022/11/14 14:03:52;;;;;;;1.92;1.67;;;;;;;;;;5001744;28;20327;-71
2022/11/14 14:06:31;;;;;;;1.67;1.33;;;;;;;;;;5010973;28;20089;-68
2022/11/14 14:09:32;;;;;;;2.95;1.67;;;;;;;;;;5005571;28;20107;-69
2022/11/14 14:12:20;;;;;;;2.45;1.30;;;;;;;;;;4987918;28;20050;-67
2022/11/14 14:15:07;;;;;;;1.60;1.25;;;;;;;;;;5001561;28;20045;-69
2022/11/14 14:18:03;;;;;;;2.25;1.63;;;;;;;;;;4998590;28;20294;-67
2022/11/14 14:20:32;;;;;;;4.10;1.75;;;;;;;;;;4980607;28;20064;-66
2022/11/14 14:23:36;;;;;;;2.38;1.40;;;;;;;;;;5006546;28;20136;-67
2022/11/14 14:26:35;;;;;;;4.10;1.30;;;;;;;;;;5007169;28;20587;-68
2022/11/14 14:29:19;;;;;;;2.47;1.48;;;;;;;;;;4998270;28;20166;-69
2022/11/14 14:31:45;;;;;;;5.10;1.65;;;;;;;;;;5026859;28;20108;-67
2022/11/14 14:34:42;;;;;;;2.50;1.60;;;;;;;;;;4996749;28;20052;-73
2022/11/14 14:37:19;;;;;;;1.70;1.45;;;;;;;;;;4988124;28;20104;-75
2022/11/14 14:40:04;;;;;;;2.63;1.45;;;;;;;;;;5000676;28;20039;-69
2022/11/14 14:42:44;;;;;;;1.20;1.02;;;;;;;;;;5002273;28;20069;-70
2022/11/14 14:45:15;;;;;;;4.70;1.42;;;;;;;;;;5000337;28;20521;-71
2022/11/14 14:47:44;;;;;;;2.35;1.60;;;;;;;;;;4977237;28;20053;-72
2022/11/14 14:50:26;;;;;;;2.97;1.73;;;;;;;;;;4979066;28;20128;-75
2022/11/14 14:52:57;;;;;;;2.50;1.85;;;;;;;;;;4982334;28;20454;-72
2022/11/14 14:55:31;;;;;;;2.55;1.85;;;;;;;;;;4996923;28;20054;-66
2022/11/14 14:58:26;;;;;;;2.30;1.90;;;;;;;;;;4994874;28;20054;-67
2022/11/14 15:01:02;;;;;;;4.10;2.10;;;;;;;;;;4995826;28;20109;-64
2022/11/14 15:03:36;;;;;;;2.70;2.13;;;;;;;;;;4998637;28;20062;-67